createdAt,value
2019-05-14T00:00:51.993Z,30.50
2019-05-14T00:03:23.046Z,30.50
2019-05-14T00:05:55.260Z,30.50
2019-05-14T00:08:26.994Z,30.50
2019-05-14T00:11:01.456Z,30.50
2019-05-14T00:13:33.533Z,30.40
2019-05-14T00:16:05.577Z,30.40
2019-05-14T00:18:37.385Z,30.30
2019-05-14T00:21:09.391Z,30.30
2019-05-14T00:23:42.052Z,30.20
2019-05-14T00:26:14.861Z,30.30
2019-05-14T00:28:46.645Z,30.30
2019-05-14T00:31:21.163Z,30.30
2019-05-14T00:33:52.266Z,30.30
2019-05-14T00:36:24.191Z,30.30
2019-05-14T00:38:55.949Z,30.20
2019-05-14T00:41:28.170Z,30.20
2019-05-14T00:44:01.796Z,30.20
2019-05-14T00:46:33.711Z,30.20
2019-05-14T00:49:05.545Z,30.10
2019-05-14T00:51:37.373Z,30.00
2019-05-14T00:54:11.158Z,30.00
2019-05-14T00:56:43.464Z,30.10
2019-05-14T00:59:15.221Z,30.20
2019-05-14T01:01:47.169Z,30.10
2019-05-14T01:04:18.953Z,30.20
2019-05-14T01:06:51.223Z,30.20
2019-05-14T01:09:23.413Z,30.20
2019-05-14T01:11:55.763Z,30.20
2019-05-14T01:14:27.522Z,30.10
2019-05-14T01:17:01.799Z,30.00
2019-05-14T01:19:34.012Z,29.90
2019-05-14T01:22:07.183Z,29.90
2019-05-14T01:24:41.438Z,30.00
2019-05-14T01:27:13.165Z,30.00
2019-05-14T01:29:44.934Z,30.10
2019-05-14T01:32:16.787Z,30.20
2019-05-14T01:34:48.599Z,30.10
2019-05-14T01:37:21.890Z,30.10
2019-05-14T01:39:53.958Z,30.10
2019-05-14T01:42:26.104Z,30.10
2019-05-14T01:44:57.885Z,30.00
2019-05-14T01:47:31.725Z,30.10
2019-05-14T01:50:03.325Z,30.10
2019-05-14T01:52:35.544Z,30.10
2019-05-14T01:55:07.550Z,30.10
2019-05-14T01:57:42.266Z,30.20
2019-05-14T02:00:13.676Z,30.30
2019-05-14T02:02:45.628Z,30.20
2019-05-14T02:05:17.491Z,30.20
2019-05-14T02:07:49.595Z,30.20
2019-05-14T02:10:22.737Z,30.20
2019-05-14T02:12:54.845Z,30.20
2019-05-14T02:15:38.883Z,30.20
2019-05-14T02:18:02.232Z,30.20
2019-05-14T02:20:33.608Z,30.20
2019-05-14T02:23:05.674Z,30.20
2019-05-14T02:25:37.447Z,30.20
2019-05-14T02:28:11.573Z,30.20
2019-05-14T02:30:51.974Z,30.20
2019-05-14T02:33:19.223Z,30.20
2019-05-14T02:35:50.310Z,30.20
2019-05-14T02:38:22.141Z,30.20
2019-05-14T02:40:53.992Z,30.20
2019-05-14T02:43:29.039Z,30.20
2019-05-14T02:46:10.783Z,30.20
2019-05-14T02:48:33.515Z,30.20
2019-05-14T02:51:05.350Z,30.20
2019-05-14T02:53:39.134Z,30.10
2019-05-14T02:56:11.076Z,30.10
2019-05-14T02:58:43.264Z,30.10
2019-05-14T03:01:15.017Z,30.10
2019-05-14T03:03:49.579Z,30.10
2019-05-14T03:06:21.161Z,30.10
2019-05-14T03:08:52.988Z,30.10
2019-05-14T03:11:24.787Z,30.20
2019-05-14T03:13:59.761Z,30.20
2019-05-14T03:16:35.263Z,30.20
2019-05-14T03:19:04.941Z,30.20
2019-05-14T03:21:39.552Z,30.20
2019-05-14T03:24:10.744Z,30.30
2019-05-14T03:26:42.550Z,30.30
2019-05-14T03:29:14.653Z,30.30
2019-05-14T03:31:51.869Z,30.20
2019-05-14T03:34:22.375Z,30.20
2019-05-14T03:36:53.836Z,30.30
2019-05-14T03:39:25.882Z,30.30
2019-05-14T03:41:59.005Z,30.30
2019-05-14T03:44:31.644Z,30.30
2019-05-14T03:47:05.210Z,30.30
2019-05-14T03:49:39.828Z,30.30
2019-05-14T03:52:11.837Z,30.20
2019-05-14T03:54:44.015Z,30.30
2019-05-14T03:57:15.857Z,30.20
2019-05-14T03:59:49.830Z,30.30
2019-05-14T04:02:22.316Z,30.30
2019-05-14T04:04:54.331Z,30.30
2019-05-14T04:07:30.403Z,30.30
2019-05-14T04:10:03.236Z,30.30
2019-05-14T04:12:40.376Z,30.30
2019-05-14T04:15:12.940Z,30.20
2019-05-14T04:17:50.138Z,30.10
2019-05-14T04:20:20.920Z,30.00
2019-05-14T04:22:56.092Z,30.10
2019-05-14T04:25:31.290Z,30.20
2019-05-14T04:28:05.496Z,30.00
2019-05-14T04:30:40.826Z,30.00
2019-05-14T04:33:19.002Z,30.00
2019-05-14T04:35:51.268Z,30.00
2019-05-14T04:38:23.148Z,30.10
2019-05-14T04:40:55.142Z,30.10
2019-05-14T04:43:29.406Z,30.00
2019-05-14T04:46:00.674Z,30.00
2019-05-14T04:48:37.636Z,30.00
2019-05-14T04:51:09.552Z,30.10
2019-05-14T04:53:39.801Z,30.20
2019-05-14T04:56:11.991Z,30.20
2019-05-14T04:58:43.761Z,30.20
2019-05-14T05:01:16.146Z,30.20
2019-05-14T05:03:50.280Z,30.30
2019-05-14T05:06:21.416Z,30.30
2019-05-14T05:08:53.188Z,30.30
2019-05-14T05:11:25.014Z,30.30
2019-05-14T05:13:59.306Z,30.30
2019-05-14T05:16:30.478Z,30.30
2019-05-14T05:19:02.692Z,30.30
2019-05-14T05:21:34.466Z,30.40
2019-05-14T05:24:06.308Z,30.40
2019-05-14T05:26:39.257Z,30.50
2019-05-14T05:29:11.143Z,30.50
2019-05-14T05:31:43.405Z,30.60
2019-05-14T05:34:15.167Z,30.60
2019-05-14T05:36:48.526Z,30.60
2019-05-14T05:39:20.676Z,30.60
2019-05-14T05:41:52.777Z,30.60
2019-05-14T05:44:24.681Z,30.60
2019-05-14T05:46:59.450Z,30.60
2019-05-14T05:49:30.493Z,30.60
2019-05-14T05:52:02.273Z,30.60
2019-05-14T05:54:34.267Z,30.60
2019-05-14T05:57:09.041Z,30.60
2019-05-14T05:59:40.257Z,30.60
2019-05-14T06:02:12.570Z,30.60
2019-05-14T06:04:44.383Z,30.70
2019-05-14T06:07:18.377Z,30.70
2019-05-14T06:09:50.040Z,30.70
2019-05-14T06:12:22.062Z,30.80
2019-05-14T06:14:53.892Z,30.70
2019-05-14T06:17:28.534Z,30.70
2019-05-14T06:19:59.760Z,30.70
2019-05-14T06:22:31.867Z,30.70
2019-05-14T06:25:03.636Z,30.70
2019-05-14T06:27:37.894Z,30.80
2019-05-14T06:30:11.433Z,30.90
2019-05-14T06:32:43.600Z,31.00
2019-05-14T06:35:19.158Z,30.90
2019-05-14T06:37:49.981Z,30.90
2019-05-14T06:40:21.755Z,31.00
2019-05-14T06:42:53.844Z,30.90
2019-05-14T06:45:25.592Z,31.00
2019-05-14T06:47:59.294Z,31.00
2019-05-14T06:50:31.193Z,31.10
2019-05-14T06:53:03.065Z,31.20
2019-05-14T06:55:34.822Z,31.20
2019-05-14T06:58:09.011Z,31.30
2019-05-14T07:00:40.135Z,31.30
2019-05-14T07:03:12.361Z,31.40
2019-05-14T07:05:44.114Z,31.50
2019-05-14T07:08:18.785Z,31.50
2019-05-14T07:10:50.665Z,31.50
2019-05-14T07:13:22.540Z,31.50
2019-05-14T07:15:54.301Z,31.50
2019-05-14T07:18:30.203Z,31.50
2019-05-14T07:20:59.997Z,31.40
2019-05-14T07:23:32.107Z,31.30
2019-05-14T07:26:03.930Z,31.30
2019-05-14T07:28:35.938Z,31.30
2019-05-14T07:31:09.775Z,31.40
2019-05-14T07:33:41.702Z,31.40
2019-05-14T07:36:13.487Z,31.40
2019-05-14T07:38:48.669Z,31.50
2019-05-14T07:41:19.588Z,31.60
2019-05-14T07:43:51.527Z,31.70
2019-05-14T07:46:23.278Z,31.80
2019-05-14T07:49:05.360Z,31.80
2019-05-14T07:51:28.742Z,31.80
2019-05-14T07:54:00.583Z,31.80
2019-05-14T07:56:32.329Z,31.80
2019-05-14T07:59:04.325Z,31.80
2019-05-14T08:01:36.087Z,31.70
2019-05-14T08:04:11.276Z,31.70
2019-05-14T08:06:42.114Z,31.70
2019-05-14T08:09:15.059Z,31.60
2019-05-14T08:11:48.022Z,31.60
2019-05-14T08:14:20.125Z,31.60
2019-05-14T08:16:51.905Z,31.60
2019-05-14T08:19:27.258Z,31.60
2019-05-14T08:21:58.685Z,31.50
2019-05-14T08:24:31.168Z,31.50
2019-05-14T08:27:03.047Z,31.50
2019-05-14T08:29:36.903Z,31.60
2019-05-14T08:32:08.970Z,31.60
2019-05-14T08:34:41.088Z,31.60
2019-05-14T08:37:12.918Z,31.70
2019-05-14T08:39:44.946Z,31.80
2019-05-14T08:42:18.626Z,31.80
2019-05-14T08:44:51.541Z,32.00
2019-05-14T08:47:23.453Z,32.10
2019-05-14T08:49:55.668Z,32.10
2019-05-14T08:52:28.761Z,32.20
2019-05-14T08:55:09.964Z,32.20
2019-05-14T08:57:38.493Z,32.20
2019-05-14T09:00:13.649Z,32.20
2019-05-14T09:02:42.794Z,32.20
2019-05-14T09:05:14.773Z,32.20
2019-05-14T09:07:48.873Z,32.10
2019-05-14T09:10:21.356Z,32.10
2019-05-14T09:12:54.257Z,32.00
2019-05-14T09:15:28.697Z,32.00
2019-05-14T09:18:03.196Z,32.00
2019-05-14T09:20:33.336Z,31.90
2019-05-14T09:23:05.103Z,31.90
2019-05-14T09:25:45.284Z,31.80
2019-05-14T09:28:10.411Z,31.90
2019-05-14T09:30:42.192Z,31.80
2019-05-14T09:33:14.045Z,31.80
2019-05-14T09:35:49.082Z,31.80
2019-05-14T09:38:20.032Z,31.80
2019-05-14T09:41:07.039Z,31.80
2019-05-14T09:43:25.601Z,31.80
2019-05-14T09:45:58.709Z,31.90
2019-05-14T09:48:30.842Z,31.90
2019-05-14T09:51:03.178Z,31.90
2019-05-14T09:53:38.160Z,32.00
2019-05-14T09:56:09.865Z,32.10
2019-05-14T09:58:42.212Z,32.10
2019-05-14T10:01:14.156Z,32.10
2019-05-14T10:03:46.013Z,32.20
2019-05-14T10:06:20.671Z,32.20
2019-05-14T10:08:51.930Z,32.20
2019-05-14T10:11:23.855Z,32.00
2019-05-14T10:13:55.668Z,32.00
2019-05-14T10:16:29.131Z,31.80
2019-05-14T10:19:01.237Z,31.90
2019-05-14T10:21:33.327Z,31.70
2019-05-14T10:24:05.175Z,31.70
2019-05-14T10:26:39.204Z,31.70
2019-05-14T10:29:10.496Z,31.50
2019-05-14T10:31:42.635Z,31.40
2019-05-14T10:34:14.537Z,31.40
2019-05-14T10:36:46.720Z,31.50
2019-05-14T10:39:19.267Z,31.60
2019-05-14T10:41:51.321Z,31.60
2019-05-14T10:44:23.091Z,31.80
2019-05-14T10:46:55.084Z,31.80
2019-05-14T10:49:29.711Z,32.00
2019-05-14T10:52:00.949Z,32.00
2019-05-14T10:54:32.812Z,31.90
2019-05-14T10:57:04.648Z,31.90
2019-05-14T10:59:36.449Z,31.80
2019-05-14T11:02:11.988Z,31.70
2019-05-14T11:04:41.958Z,31.60
2019-05-14T11:07:14.052Z,31.60
2019-05-14T11:09:45.846Z,31.60
2019-05-14T11:12:19.332Z,31.60
2019-05-14T11:14:51.490Z,31.50
2019-05-14T11:17:23.569Z,31.40
2019-05-14T11:19:55.355Z,31.40
2019-05-14T11:22:28.818Z,31.30
2019-05-14T11:25:01.004Z,31.50
2019-05-14T11:27:33.079Z,31.50
2019-05-14T11:30:05.764Z,31.60
2019-05-14T11:32:38.640Z,31.50
2019-05-14T11:35:13.169Z,31.50
2019-05-14T11:37:47.888Z,31.70
2019-05-14T11:40:19.698Z,31.70
2019-05-14T11:42:51.715Z,31.60
2019-05-14T11:45:24.883Z,31.50
2019-05-14T11:47:58.384Z,31.60
2019-05-14T11:50:30.519Z,31.70
2019-05-14T11:53:02.929Z,31.70
2019-05-14T11:55:34.869Z,31.80
2019-05-14T11:58:08.737Z,31.90
2019-05-14T12:00:40.583Z,32.00
2019-05-14T12:03:12.497Z,32.00
2019-05-14T12:05:44.313Z,32.00
2019-05-14T12:08:18.575Z,31.90
2019-05-14T12:10:49.958Z,31.80
2019-05-14T12:13:22.019Z,31.70
2019-05-14T12:15:53.843Z,31.60
2019-05-14T12:18:26.134Z,31.60
2019-05-14T12:20:59.413Z,31.60
2019-05-14T12:23:31.713Z,31.50
2019-05-14T12:26:03.504Z,31.50
2019-05-14T12:28:38.444Z,31.40
2019-05-14T12:31:09.510Z,31.40
2019-05-14T12:33:41.742Z,31.40
2019-05-14T12:36:13.528Z,31.40
2019-05-14T12:38:45.981Z,31.20
2019-05-14T12:41:19.313Z,31.20
2019-05-14T12:43:51.385Z,31.20
2019-05-14T12:46:23.213Z,31.20
2019-05-14T12:48:55.087Z,31.20
2019-05-14T12:51:26.878Z,31.10
2019-05-14T12:53:59.073Z,31.20
2019-05-14T12:56:30.838Z,31.20
2019-05-14T12:59:02.806Z,31.20
2019-05-14T13:01:35.109Z,31.30
2019-05-14T13:04:08.510Z,31.20
2019-05-14T13:06:40.651Z,31.30
2019-05-14T13:09:12.907Z,31.20
2019-05-14T13:11:44.761Z,31.20
2019-05-14T13:14:16.585Z,31.20
2019-05-14T13:16:48.793Z,31.20
2019-05-14T13:19:21.120Z,31.20
2019-05-14T13:22:08.792Z,31.20
2019-05-14T13:24:28.719Z,31.20
2019-05-14T13:27:00.197Z,31.30
2019-05-14T13:29:32.082Z,31.30
2019-05-14T13:32:05.364Z,31.20
2019-05-14T13:34:39.620Z,31.20
2019-05-14T13:37:10.829Z,31.20
2019-05-14T13:39:42.635Z,31.10
2019-05-14T13:42:15.096Z,31.00
2019-05-14T13:44:46.934Z,31.10
2019-05-14T13:47:18.811Z,31.10
2019-05-14T13:49:50.866Z,31.10
2019-05-14T13:52:23.025Z,31.00
2019-05-14T13:54:55.108Z,31.00
2019-05-14T13:57:28.665Z,31.10
2019-05-14T14:00:00.879Z,31.10
2019-05-14T14:02:33.072Z,31.10
2019-05-14T14:05:05.651Z,31.20
2019-05-14T14:07:39.646Z,31.10
2019-05-14T14:10:11.705Z,31.10
2019-05-14T14:12:43.756Z,31.00
2019-05-14T14:15:16.022Z,31.00
2019-05-14T14:17:49.569Z,31.00
2019-05-14T14:20:21.683Z,30.90
2019-05-14T14:22:53.495Z,30.80
2019-05-14T14:25:26.114Z,30.70
2019-05-14T14:28:00.373Z,30.80
2019-05-14T14:30:31.666Z,30.80
2019-05-14T14:33:03.517Z,30.70
2019-05-14T14:35:38.674Z,30.80
2019-05-14T14:38:09.873Z,30.90
2019-05-14T14:40:42.234Z,30.70
2019-05-14T14:43:14.048Z,30.80
2019-05-14T14:45:47.624Z,30.80
2019-05-14T14:48:20.556Z,30.80
2019-05-14T14:50:52.731Z,30.70
2019-05-14T14:53:41.340Z,30.70
2019-05-14T14:56:00.380Z,30.70
2019-05-14T14:58:32.697Z,30.80
2019-05-14T15:01:04.805Z,30.70
2019-05-14T15:03:36.821Z,30.70
2019-05-14T15:06:09.846Z,30.70
2019-05-14T15:08:42.016Z,30.60
2019-05-14T15:11:14.163Z,30.70
2019-05-14T15:13:48.082Z,30.70
2019-05-14T15:16:20.361Z,30.70
2019-05-14T15:18:52.555Z,30.70
2019-05-14T15:21:24.638Z,30.70
2019-05-14T15:24:07.139Z,30.60
2019-05-14T15:26:30.484Z,30.70
2019-05-14T15:29:02.285Z,30.70
2019-05-14T15:31:34.242Z,30.80
2019-05-14T15:34:08.681Z,30.80
2019-05-14T15:36:41.712Z,30.80
2019-05-14T15:39:14.583Z,30.80
2019-05-14T15:41:49.656Z,30.80
2019-05-14T15:44:20.524Z,30.70
2019-05-14T15:46:52.644Z,30.70
2019-05-14T15:49:24.494Z,30.80
2019-05-14T15:51:56.571Z,30.80
2019-05-14T15:54:41.882Z,30.80
2019-05-14T15:57:02.154Z,30.80
2019-05-14T15:59:34.245Z,30.80
2019-05-14T16:02:09.084Z,30.80
2019-05-14T16:04:39.764Z,30.80
2019-05-14T16:07:11.788Z,30.70
2019-05-14T16:09:44.685Z,30.80
2019-05-14T16:12:19.487Z,30.70
2019-05-14T16:14:50.347Z,30.60
2019-05-14T16:17:24.749Z,30.70
2019-05-14T16:19:55.941Z,30.70
2019-05-14T16:22:29.340Z,30.70
2019-05-14T16:25:01.304Z,30.70
2019-05-14T16:27:34.704Z,30.80
2019-05-14T16:30:09.414Z,30.80
2019-05-14T16:32:40.532Z,30.80
2019-05-14T16:35:12.950Z,30.80
2019-05-14T16:37:45.037Z,30.80
2019-05-14T16:40:19.303Z,30.80
2019-05-14T16:42:51.310Z,30.80
2019-05-14T16:45:23.163Z,30.70
2019-05-14T16:47:55.027Z,30.70
2019-05-14T16:50:28.653Z,30.70
2019-05-14T16:53:00.684Z,30.70
2019-05-14T16:55:32.601Z,30.60
2019-05-14T16:58:04.894Z,30.70
2019-05-14T17:00:36.746Z,30.80
2019-05-14T17:03:08.981Z,30.90
2019-05-14T17:05:41.020Z,30.90
2019-05-14T17:08:13.137Z,31.00
2019-05-14T17:10:45.004Z,31.00
2019-05-14T17:13:17.883Z,31.00
2019-05-14T17:15:49.923Z,31.10
2019-05-14T17:18:22.249Z,31.00
2019-05-14T17:20:54.149Z,31.00
2019-05-14T17:23:28.286Z,31.00
2019-05-14T17:25:59.904Z,31.00
2019-05-14T17:28:32.517Z,31.00
2019-05-14T17:31:04.498Z,31.00
2019-05-14T17:33:39.201Z,31.00
2019-05-14T17:36:10.227Z,30.90
2019-05-14T17:38:42.415Z,30.90
2019-05-14T17:41:14.385Z,30.90
2019-05-14T17:43:48.776Z,30.90
2019-05-14T17:46:20.687Z,30.90
2019-05-14T17:48:53.034Z,30.90
2019-05-14T17:51:24.941Z,31.00
2019-05-14T17:53:58.739Z,31.00
2019-05-14T17:56:31.013Z,31.00
2019-05-14T17:59:03.763Z,31.00
2019-05-14T18:01:35.953Z,31.00
2019-05-14T18:04:09.140Z,31.00
2019-05-14T18:06:41.413Z,31.00
2019-05-14T18:09:13.633Z,31.00
2019-05-14T18:11:45.543Z,31.00
2019-05-14T18:14:19.109Z,31.00
2019-05-14T18:16:51.139Z,31.00
2019-05-14T18:19:23.122Z,31.00
2019-05-14T18:21:55.392Z,31.00
2019-05-14T18:24:28.562Z,31.00
2019-05-14T18:27:00.886Z,31.00
2019-05-14T18:29:32.788Z,31.00
2019-05-14T18:32:04.678Z,30.90
2019-05-14T18:34:38.997Z,30.90
2019-05-14T18:37:13.748Z,30.90
2019-05-14T18:39:44.034Z,30.90
2019-05-14T18:42:18.863Z,30.90
2019-05-14T18:44:50.621Z,31.00
2019-05-14T18:47:22.474Z,31.00
2019-05-14T18:49:54.597Z,31.00
2019-05-14T18:52:29.546Z,31.00
2019-05-14T18:55:00.790Z,31.00
2019-05-14T18:57:32.812Z,31.00
2019-05-14T19:00:05.634Z,31.00
2019-05-14T19:02:39.281Z,31.00
2019-05-14T19:08:09.975Z,31.00
2019-05-14T19:10:41.931Z,31.00
2019-05-14T19:13:15.049Z,31.00
2019-05-14T19:15:48.282Z,31.10
2019-05-14T19:18:20.720Z,31.10
2019-05-14T19:20:52.604Z,31.20
2019-05-14T19:23:24.643Z,31.20
2019-05-14T19:25:58.924Z,31.20
2019-05-14T19:28:30.209Z,31.20
2019-05-14T19:31:02.023Z,31.20
2019-05-14T19:33:34.000Z,31.20
2019-05-14T19:36:05.917Z,31.30
2019-05-14T19:38:38.947Z,31.30
2019-05-14T19:41:11.582Z,31.40
2019-05-14T19:43:43.834Z,31.30
2019-05-14T19:46:15.750Z,31.20
2019-05-14T19:48:48.491Z,31.20
2019-05-14T19:51:20.573Z,31.20
2019-05-14T19:53:52.852Z,31.20
2019-05-14T19:56:24.887Z,31.20
2019-05-14T19:58:57.147Z,31.20
2019-05-14T20:01:29.158Z,31.20
2019-05-14T20:04:01.080Z,31.20
2019-05-14T20:06:32.955Z,31.20
2019-05-14T20:09:09.480Z,31.20
2019-05-14T20:11:41.796Z,31.20
2019-05-14T20:14:13.842Z,31.10
2019-05-14T20:16:45.998Z,31.20
2019-05-14T20:19:19.445Z,31.20
2019-05-14T20:21:51.324Z,31.20
2019-05-14T20:24:24.174Z,31.00
2019-05-14T20:27:05.751Z,31.00
2019-05-14T20:29:31.247Z,31.00
2019-05-14T20:32:03.695Z,31.00
2019-05-14T20:34:36.435Z,31.10
2019-05-14T20:37:08.668Z,31.10
2019-05-14T20:39:41.528Z,31.00
2019-05-14T20:42:13.835Z,31.10
2019-05-14T20:44:46.218Z,31.10
2019-05-14T20:47:19.023Z,31.10
2019-05-14T20:49:51.526Z,31.20
2019-05-14T20:52:23.553Z,31.20
2019-05-14T20:54:57.919Z,31.20
2019-05-14T20:57:33.313Z,31.30
2019-05-14T21:00:03.943Z,31.30
2019-05-14T21:02:39.059Z,31.30
2019-05-14T21:05:14.324Z,31.30
2019-05-14T21:07:44.928Z,31.20
2019-05-14T21:10:19.080Z,31.30
2019-05-14T21:12:50.597Z,31.20
2019-05-14T21:15:22.889Z,31.30
2019-05-14T21:17:54.829Z,31.30
2019-05-14T21:20:28.295Z,31.30
2019-05-14T21:23:00.633Z,31.10
2019-05-14T21:25:33.518Z,31.00
2019-05-14T21:28:05.778Z,31.10
2019-05-14T21:30:38.747Z,31.10
2019-05-14T21:33:10.918Z,31.10
2019-05-14T21:35:42.769Z,31.00
2019-05-14T21:38:14.629Z,31.10
2019-05-14T21:40:46.533Z,31.20
2019-05-14T21:43:18.610Z,31.20
2019-05-14T21:45:50.952Z,31.10
2019-05-14T21:48:22.963Z,31.10
2019-05-14T21:50:54.799Z,31.10
2019-05-14T21:53:26.825Z,31.10
2019-05-14T21:55:59.098Z,31.00
2019-05-14T21:58:30.869Z,31.00
2019-05-14T22:01:04.771Z,30.90
2019-05-14T22:03:36.660Z,30.90
2019-05-14T22:06:09.004Z,31.00
2019-05-14T22:08:40.811Z,30.90
2019-05-14T22:11:13.093Z,30.90
2019-05-14T22:13:44.856Z,30.90
2019-05-14T22:16:18.926Z,31.00
2019-05-14T22:18:50.513Z,31.00
2019-05-14T22:21:22.461Z,31.00
2019-05-14T22:23:54.215Z,31.00
2019-05-14T22:26:28.176Z,31.10
2019-05-14T22:28:59.809Z,31.20
2019-05-14T22:31:31.820Z,31.20
2019-05-14T22:34:03.808Z,31.20
2019-05-14T22:36:35.655Z,31.10
2019-05-14T22:39:08.132Z,31.10
2019-05-14T22:41:40.160Z,31.20
2019-05-14T22:44:11.904Z,31.20
2019-05-14T22:46:43.787Z,31.20
2019-05-14T22:49:15.593Z,31.20
2019-05-14T22:51:49.228Z,31.20
2019-05-14T22:54:22.247Z,31.20
2019-05-14T22:56:54.567Z,31.20
2019-05-14T22:59:28.305Z,31.20
2019-05-14T23:01:59.959Z,31.20
2019-05-14T23:04:31.807Z,31.20
2019-05-14T23:07:03.799Z,31.30
2019-05-14T23:09:35.646Z,31.30
2019-05-14T23:12:11.974Z,31.30
2019-05-14T23:14:41.391Z,31.20
2019-05-14T23:17:13.507Z,31.10
2019-05-14T23:19:45.336Z,31.20
2019-05-14T23:22:18.579Z,31.30
2019-05-14T23:24:50.707Z,31.30
2019-05-14T23:27:22.564Z,31.30
2019-05-14T23:29:54.533Z,31.30
2019-05-14T23:32:28.566Z,31.30
2019-05-14T23:35:00.068Z,31.20
2019-05-14T23:37:32.719Z,31.20
2019-05-14T23:40:04.756Z,31.20
2019-05-14T23:42:39.293Z,31.30
2019-05-14T23:45:10.762Z,31.30
2019-05-14T23:47:42.906Z,31.30
2019-05-14T23:50:14.977Z,31.30
2019-05-14T23:52:49.373Z,31.30
2019-05-14T23:55:20.293Z,31.40
2019-05-14T23:57:52.523Z,31.30
